Terminal Aerodrome Forecast
Issued by NWS

Home | Current Version | Previous Version | Text Only | Print | Product List | Glossary Off
Versions: 1 2 3 4 5 6 7 8 9 10 11 12 13 14 15

274
FTUS41 KCLE 170543
TAFFDY
TAF
KFDY 170543Z 1706/1806 25010KT P6SM OVC015
      TEMPO 1706/1708 -SN OVC009
     FM171200 25010KT P6SM BKN035
     FM171900 25012KT P6SM SCT035=

USA.gov is the U.S. government's official web portal to all federal, state and local government web resources and services.